< < Back
Terminal Aerodrome Forecast


Current Version              Previous Versions:   1  2  3  4  5  6  7  8  9  

Terminal Aerodrome Forecast

430
FTUS42 KFFC 181500 AAA
TAFMCN
TAF AMD
KMCN 181511Z 1815/1912 03005KT P6SM OVC015
     FM181700 34006KT P6SM SCT045
     FM190000 35005KT P6SM FEW050
     FM190600 04003KT 6SM BR SCT250=



Latest METAR

177
SAUS80 KWBC 190100
MTRMCN
METAR KMCN 190053Z AUTO 00000KT 10SM CLR 21/20 A2996 RMK AO2 SLP139
T02060200 TSNO


USA.gov is the U.S. government's official web portal to all federal, state and local government web resources and services.